Time;durP1;ratioP1;P1;durP2;ratioP2;P2;SDS_P1;SDS_P2;PMS_P1;PMS_P2;Temp;Humidity;BMP_temperature;BMP_pressure;BME280_temperature;BME280_humidity;BME280_pressure;Samples;Min_cycle;Max_cycle;Signal;HPM_P1;HPM_P2
2021/07/22 00:00:48;;;;;;;;;18.00;18.00;;;;;25.80;40.04;101714.28;4937470;28;46884;-71
2021/07/22 00:03:13;;;;;;;;;19.00;17.50;;;;;25.77;39.97;101701.94;4937194;28;45489;-71
2021/07/22 00:05:38;;;;;;;;;20.25;17.50;;;;;25.73;40.02;101703.13;4922322;28;45385;-71
2021/07/22 00:08:09;;;;;;;;;20.00;17.50;;;;;25.71;40.09;101707.72;4922720;28;45586;-71
2021/07/22 00:10:34;;;;;;;;;14.50;14.50;;;;;25.67;40.60;101700.88;4926213;28;46275;-70
2021/07/22 00:12:59;;;;;;;;;23.75;21.00;;;;;25.64;40.75;101701.06;4926254;28;45579;-70
2021/07/22 00:15:25;;;;;;;;;23.00;18.00;;;;;25.61;40.64;101703.97;4926553;28;47248;-71
2021/07/22 00:17:50;;;;;;;;;18.75;16.50;;;;;25.58;40.64;101701.50;4923646;28;45569;-71
2021/07/22 00:20:15;;;;;;;;;15.00;15.00;;;;;25.53;40.53;101701.81;4921933;28;45473;-71
2021/07/22 00:22:41;;;;;;;;;20.25;19.00;;;;;25.49;40.68;101705.66;4937376;28;45351;-70
2021/07/22 00:25:07;;;;;;;;;21.75;14.50;;;;;25.45;40.67;101701.47;4929785;28;45344;-70
2021/07/22 00:27:33;;;;;;;;;20.50;19.00;;;;;25.42;41.23;101707.03;4926006;28;45453;-71
2021/07/22 00:29:59;;;;;;;;;21.50;17.25;;;;;25.39;41.30;101708.09;4924122;28;45605;-70
2021/07/22 00:32:24;;;;;;;;;21.25;19.00;;;;;25.37;41.61;101703.81;4921242;28;45398;-71
2021/07/22 00:34:49;;;;;;;;;16.75;16.75;;;;;25.35;41.16;101714.63;4924716;28;45353;-71
2021/07/22 00:37:15;;;;;;;;;18.50;17.25;;;;;25.31;41.58;101712.25;4934237;28;45496;-71
2021/07/22 00:39:40;;;;;;;;;21.50;18.25;;;;;25.29;41.69;101708.81;4936932;28;45396;-72
2021/07/22 00:42:05;;;;;;;;;21.50;21.50;;;;;25.24;41.51;101713.63;4937210;28;45393;-71
2021/07/22 00:44:31;;;;;;;;;19.75;18.50;;;;;25.21;41.47;101714.69;4921691;28;45431;-71
2021/07/22 00:46:56;;;;;;;;;22.50;21.25;;;;;25.17;41.64;101707.78;4923618;28;45398;-70
2021/07/22 00:49:21;;;;;;;;;19.75;18.75;;;;;25.13;41.53;101715.16;4925866;28;47122;-70
2021/07/22 00:51:47;;;;;;;;;21.50;19.50;;;;;25.10;41.77;101710.03;4925473;28;46078;-71
2021/07/22 00:54:12;;;;;;;;;20.75;17.00;;;;;25.08;42.06;101705.72;4925937;28;45400;-71
2021/07/22 00:56:38;;;;;;;;;15.25;15.25;;;;;25.05;41.99;101708.59;4921617;28;45548;-70
2021/07/22 00:59:04;;;;;;;;;23.00;21.75;;;;;25.01;42.30;101706.13;4922071;28;46206;-71
2021/07/22 01:01:29;;;;;;;;;20.75;15.75;;;;;24.98;42.03;101705.47;4925302;28;45620;-71
2021/07/22 01:03:55;;;;;;;;;20.00;20.00;;;;;24.94;42.27;101704.81;4925702;28;46859;-71
2021/07/22 01:06:20;;;;;;;;;21.25;18.00;;;;;24.90;42.19;101705.97;4925303;28;45549;-70
2021/07/22 01:08:45;;;;;;;;;18.50;17.00;;;;;24.88;42.28;101709.69;4921789;28;47051;-70
2021/07/22 01:11:11;;;;;;;;;18.75;17.50;;;;;24.85;42.50;101704.56;4921446;28;45398;-71
2021/07/22 01:13:36;;;;;;;;;19.50;16.00;;;;;24.82;42.19;101712.78;4925589;28;45347;-71
2021/07/22 01:16:02;;;;;;;;;19.25;19.00;;;;;24.78;42.75;101712.13;4931777;28;45487;-71
2021/07/22 01:18:27;;;;;;;;;19.00;19.00;;;;;24.75;42.93;101712.31;4936182;28;47831;-71
2021/07/22 01:20:52;;;;;;;;;22.25;18.75;;;;;24.70;42.52;101709.94;4935975;28;45509;-71
2021/07/22 01:23:18;;;;;;;;;22.75;22.00;;;;;24.69;42.91;101710.03;4921146;28;45318;-71
2021/07/22 01:25:43;;;;;;;;;23.00;18.75;;;;;24.65;42.66;101708.53;4907309;28;45497;-71
2021/07/22 01:28:08;;;;;;;;;19.75;18.75;;;;;24.63;42.86;101703.25;4925198;28;47236;-71
2021/07/22 01:30:34;;;;;;;;;20.25;20.25;;;;;24.58;42.75;101706.22;4925334;28;45461;-71
2021/07/22 01:32:59;;;;;;;;;20.75;16.50;;;;;24.56;43.33;101710.81;4923947;28;45411;-71
2021/07/22 01:35:24;;;;;;;;;18.50;16.00;;;;;24.53;43.14;101705.66;4920561;28;45399;-71
2021/07/22 01:37:50;;;;;;;;;17.25;16.25;;;;;24.50;43.10;101708.56;4923669;28;45359;-71
2021/07/22 01:40:16;;;;;;;;;20.25;18.25;;;;;24.48;43.20;101709.56;4925162;28;45425;-71
2021/07/22 01:42:41;;;;;;;;;14.50;14.25;;;;;24.44;43.23;101698.19;4925131;28;45205;-71
2021/07/22 01:45:08;;;;;;;;;22.00;19.75;;;;;24.42;43.77;101712.63;4924381;28;45279;-70
2021/07/22 01:47:35;;;;;;;;;15.00;14.50;;;;;24.38;43.74;101711.94;4920622;28;45470;-71
2021/07/22 01:50:00;;;;;;;;;19.25;15.00;;;;;24.35;43.75;101707.66;4922084;28;45386;-71
2021/07/22 01:52:26;;;;;;;;;18.50;16.25;;;;;24.32;43.76;101707.00;4925159;28;45390;-71
2021/07/22 01:54:51;;;;;;;;;23.25;19.50;;;;;24.28;43.70;101708.13;4930464;28;45545;-71
2021/07/22 01:57:16;;;;;;;;;20.25;19.50;;;;;24.26;43.66;101708.22;4935990;28;45561;-71
2021/07/22 01:59:42;;;;;;;;;20.00;17.50;;;;;24.23;44.16;101703.06;4935855;28;45574;-71
2021/07/22 02:02:09;;;;;;;;;19.00;17.75;;;;;24.20;44.03;101703.28;4921511;28;45331;-71
2021/07/22 02:04:36;;;;;;;;;17.25;15.25;;;;;24.19;43.92;101704.22;4925034;28;45452;-71
2021/07/22 02:07:02;;;;;;;;;20.50;18.00;;;;;24.16;44.29;101702.59;4924767;28;46524;-70
2021/07/22 02:09:28;;;;;;;;;17.50;16.50;;;;;24.14;44.06;101699.13;4924694;28;45536;-71
2021/07/22 02:11:55;;;;;;;;;23.00;20.50;;;;;24.11;44.38;101704.69;4922713;28;45436;-71
2021/07/22 02:14:21;;;;;;;;;21.00;16.50;;;;;24.09;44.45;101701.25;4920420;28;45632;-71
2021/07/22 02:16:47;;;;;;;;;18.00;16.75;;;;;24.06;44.18;101697.91;4923729;28;45452;-71
2021/07/22 02:19:12;;;;;;;;;15.75;15.75;;;;;24.03;44.22;101695.44;4924242;28;45501;-71
2021/07/22 02:21:38;;;;;;;;;21.50;19.25;;;;;24.00;44.29;101699.13;4924797;28;45508;-71
2021/07/22 02:24:04;;;;;;;;;16.75;16.75;;;;;23.98;44.37;101697.50;4923823;28;45403;-71
2021/07/22 02:26:30;;;;;;;;;21.75;17.75;;;;;23.94;44.69;101700.38;4920625;28;45488;-71
2021/07/22 02:28:56;;;;;;;;;21.50;16.00;;;;;23.93;44.82;101698.69;4925747;28;45283;-71
2021/07/22 02:31:21;;;;;;;;;20.50;18.00;;;;;23.89;45.04;101705.16;4928165;28;45376;-71
2021/07/22 02:33:46;;;;;;;;;20.75;17.25;;;;;23.87;44.94;101704.38;4932224;28;45419;-71
2021/07/22 02:36:11;;;;;;;;;23.00;21.75;;;;;23.86;44.66;101702.69;4938966;28;46104;-71
2021/07/22 02:38:37;;;;;;;;;23.00;20.00;;;;;23.83;45.32;101705.53;4922949;28;45201;-70
2021/07/22 02:41:05;;;;;;;;;23.00;20.50;;;;;23.80;44.79;101708.38;4924723;28;45402;-70
2021/07/22 02:43:31;;;;;;;;;18.50;18.25;;;;;23.77;45.20;101705.91;4927854;28;45337;-71
2021/07/22 02:45:57;;;;;;;;;21.50;20.50;;;;;23.76;45.15;101711.34;4927652;28;47316;-71
2021/07/22 02:48:22;;;;;;;;;19.75;17.50;;;;;23.74;45.39;101714.13;4927414;28;45547;-70
2021/07/22 02:50:47;;;;;;;;;21.75;19.00;;;;;23.72;45.61;101714.16;4907450;28;45778;-70
2021/07/22 02:53:13;;;;;;;;;23.50;22.50;;;;;23.70;45.49;101710.72;4922033;28;45763;-70
2021/07/22 02:55:38;;;;;;;;;18.25;17.50;;;;;23.68;45.46;101703.75;4927458;28;45373;-70
2021/07/22 02:58:07;;;;;;;;;26.50;24.25;;;;;23.67;45.34;101702.06;4927423;28;52099;-70
2021/07/22 03:00:33;;;;;;;;;24.25;23.00;;;;;23.65;45.80;101709.28;4927775;28;45422;-70
2021/07/22 03:03:01;;;;;;;;;22.25;21.00;;;;;23.62;45.57;101712.13;4925220;28;45527;-70
2021/07/22 03:05:31;;;;;;;;;25.25;20.50;;;;;23.59;45.69;101709.66;4922636;28;46193;-71
2021/07/22 03:08:01;;;;;;;;;23.75;23.25;;;;;23.58;45.91;101705.25;4925027;28;45280;-71
2021/07/22 03:10:26;;;;;;;;;29.25;24.25;;;;;23.55;45.59;101706.31;4927047;28;45355;-71
2021/07/22 03:12:55;;;;;;;;;24.50;22.25;;;;;23.54;45.60;101712.59;4932477;28;45561;-70
2021/07/22 03:15:20;;;;;;;;;25.50;19.50;;;;;23.51;46.02;101713.63;4937951;28;46145;-70
2021/07/22 03:17:45;;;;;;;;;23.75;20.00;;;;;23.50;45.96;101711.03;4937604;28;45386;-70
2021/07/22 03:20:11;;;;;;;;;27.50;23.25;;;;;23.48;46.18;101711.16;4921294;28;48858;-70
2021/07/22 03:22:37;;;;;;;;;24.25;22.00;;;;;23.46;45.94;101710.38;4910005;28;45660;-71
2021/07/22 03:25:03;;;;;;;;;30.50;28.50;;;;;23.45;46.22;101713.97;4926860;28;46648;-70
2021/07/22 03:27:28;;;;;;;;;29.25;26.50;;;;;23.43;46.24;101704.34;4926636;28;45353;-70
2021/07/22 03:29:53;;;;;;;;;26.25;23.75;;;;;23.40;46.02;101708.06;4924546;28;48370;-70
2021/07/22 03:32:18;;;;;;;;;21.00;19.25;;;;;23.38;46.39;101712.63;4922631;28;45335;-71
2021/07/22 03:34:44;;;;;;;;;23.75;19.50;;;;;23.36;46.31;101705.66;4925597;28;63633;-71
2021/07/22 03:37:09;;;;;;;;;32.25;25.25;;;;;23.33;46.48;101712.03;4926648;28;45414;-71
2021/07/22 03:39:34;;;;;;;;;25.50;24.00;;;;;23.30;46.47;101706.88;4927212;28;45419;-70
2021/07/22 03:42:00;;;;;;;;;24.25;23.25;;;;;23.28;46.10;101716.78;4907882;28;45447;-70
2021/07/22 03:44:26;;;;;;;;;29.25;25.75;;;;;23.25;46.28;101707.16;4922009;28;46231;-71
2021/07/22 03:46:51;;;;;;;;;25.75;23.00;;;;;23.23;46.47;101709.03;4924909;28;45475;-71
2021/07/22 03:49:16;;;;;;;;;31.00;27.75;;;;;23.21;46.75;101716.28;4926508;28;45522;-71
2021/07/22 03:51:42;;;;;;;;;23.00;22.00;;;;;23.18;46.39;101713.78;4930366;28;45493;-71
2021/07/22 03:54:07;;;;;;;;;28.75;25.75;;;;;23.15;46.65;101707.78;4937221;28;46439;-71
2021/07/22 03:56:33;;;;;;;;;25.00;24.75;;;;;23.13;47.18;101702.53;4937036;28;45487;-71
2021/07/22 03:58:58;;;;;;;;;22.75;21.75;;;;;23.12;46.88;101708.84;4923531;28;45339;-71
2021/07/22 04:01:24;;;;;;;;;25.25;22.75;;;;;23.10;47.05;101711.56;4925802;28;51665;-71
2021/07/22 04:03:49;;;;;;;;;22.75;20.50;;;;;23.07;47.26;101705.53;4926173;28;46121;-71
2021/07/22 04:06:15;;;;;;;;;22.25;20.25;;;;;23.05;46.91;101707.47;4926182;28;45470;-71
2021/07/22 04:08:40;;;;;;;;;25.50;23.50;;;;;23.04;47.03;101711.91;4921698;28;45494;-72
2021/07/22 04:11:08;;;;;;;;;24.75;23.75;;;;;23.04;46.88;101713.72;4922354;28;45340;-70
2021/07/22 04:13:33;;;;;;;;;27.25;23.50;;;;;23.01;47.47;101714.78;4924925;28;46156;-70
2021/07/22 04:16:02;;;;;;;;;27.50;21.75;;;;;23.00;47.32;101713.06;4907610;28;45629;-71
2021/07/22 04:18:28;;;;;;;;;23.75;21.00;;;;;22.99;47.41;101705.13;4925737;28;45582;-71
2021/07/22 04:20:54;;;;;;;;;30.25;26.25;;;;;22.96;47.75;101708.81;4923522;28;45537;-71
2021/07/22 04:23:19;;;;;;;;;23.50;21.25;;;;;22.97;47.94;101712.31;4921036;28;45586;-71
2021/07/22 04:25:46;;;;;;;;;24.75;19.25;;;;;22.96;48.01;101719.47;4907215;28;45672;-71
2021/07/22 04:28:11;;;;;;;;;25.00;24.50;;;;;22.96;48.02;101713.28;4924705;28;45746;-71
2021/07/22 04:30:38;;;;;;;;;24.50;21.25;;;;;22.95;48.38;101708.88;4928593;28;45572;-71
2021/07/22 04:33:03;;;;;;;;;25.25;20.50;;;;;22.95;48.24;101719.56;4936579;28;46390;-70
2021/07/22 04:35:29;;;;;;;;;22.75;21.75;;;;;22.93;48.20;101716.09;4936557;28;45394;-71
2021/07/22 04:37:55;;;;;;;;;20.00;20.00;;;;;22.92;48.33;101722.41;4923512;28;45350;-71
2021/07/22 04:40:20;;;;;;;;;19.75;19.75;;;;;22.91;47.99;101718.88;4907858;28;45466;-71
2021/07/22 04:42:45;;;;;;;;;23.25;21.00;;;;;22.90;47.87;101718.00;4906957;28;47971;-71
2021/07/22 04:45:13;;;;;;;;;22.25;20.50;;;;;22.89;48.51;101724.31;4934919;28;52468;-71
2021/07/22 04:47:38;;;;;;;;;23.00;20.50;;;;;22.89;47.67;101724.31;4920725;28;45371;-71
2021/07/22 04:50:04;;;;;;;;;27.00;25.25;;;;;22.90;48.16;101720.66;4935728;28;45542;-71
2021/07/22 04:52:29;;;;;;;;;19.75;19.25;;;;;22.90;48.22;101722.47;4925394;28;47230;-71
2021/07/22 04:54:54;;;;;;;;;20.50;19.25;;;;;22.92;48.15;101733.94;4908406;28;45392;-71
2021/07/22 04:57:20;;;;;;;;;16.50;16.50;;;;;22.93;48.04;101733.00;4934974;28;47166;-71
2021/07/22 04:59:45;;;;;;;;;26.25;22.75;;;;;22.94;47.66;101729.38;4935705;28;45370;-71
2021/07/22 05:02:10;;;;;;;;;18.75;18.50;;;;;22.94;47.75;101733.88;4920547;28;46103;-73
2021/07/22 05:04:36;;;;;;;;;28.25;24.50;;;;;22.95;47.71;101733.75;4924508;28;46249;-71
2021/07/22 05:07:01;;;;;;;;;23.75;23.25;;;;;22.96;47.73;101735.50;4924627;28;45289;-71
2021/07/22 05:09:26;;;;;;;;;25.75;23.25;;;;;22.98;47.49;101738.97;4926504;28;45499;-71
2021/07/22 05:11:52;;;;;;;;;23.25;21.25;;;;;22.99;47.49;101740.69;4935278;28;50308;-71
2021/07/22 05:14:17;;;;;;;;;22.00;21.00;;;;;23.02;47.31;101742.31;4935432;28;45296;-72
2021/07/22 05:16:42;;;;;;;;;24.25;22.75;;;;;23.03;47.50;101742.25;4923975;28;45252;-71
2021/07/22 05:19:09;;;;;;;;;24.50;24.50;;;;;23.05;47.77;101742.19;4924922;28;45493;-71
2021/07/22 05:21:35;;;;;;;;;27.25;26.75;;;;;23.05;47.28;101739.50;4923843;28;46090;-71
2021/07/22 05:24:00;;;;;;;;;24.75;22.75;;;;;23.06;47.58;101739.41;4919738;28;49172;-71
2021/07/22 05:26:25;;;;;;;;;25.00;23.75;;;;;23.08;47.72;101748.19;4927593;28;45465;-71
2021/07/22 05:28:50;;;;;;;;;25.25;22.75;;;;;23.12;47.52;101740.88;4928810;28;45465;-70
2021/07/22 05:31:16;;;;;;;;;26.25;23.50;;;;;23.15;47.25;101739.84;4929916;28;46845;-70
2021/07/22 05:33:42;;;;;;;;;27.75;23.00;;;;;23.17;47.17;101746.81;4928991;28;57194;-71
2021/07/22 05:36:08;;;;;;;;;23.25;22.00;;;;;23.21;47.06;101744.81;4928300;28;45580;-70
2021/07/22 05:38:35;;;;;;;;;24.00;21.25;;;;;23.24;47.31;101744.63;4927951;28;45593;-71
2021/07/22 05:41:06;;;;;;;;;25.00;24.00;;;;;23.26;47.05;101745.41;4933343;28;45355;-68
2021/07/22 05:43:31;;;;;;;;;27.25;23.50;;;;;23.28;46.70;101743.50;4924683;28;45480;-72
2021/07/22 05:45:57;;;;;;;;;27.00;24.00;;;;;23.33;46.65;101749.44;4923591;28;45447;-74
2021/07/22 05:48:23;;;;;;;;;27.50;25.75;;;;;23.36;46.96;101741.28;4924926;28;45349;-73
2021/07/22 05:50:49;;;;;;;;;24.00;18.50;;;;;23.41;46.98;101741.00;4934475;28;45445;-73
2021/07/22 05:53:15;;;;;;;;;21.75;20.75;;;;;23.47;46.66;101740.63;4935042;28;45425;-69
2021/07/22 05:55:41;;;;;;;;;21.00;19.50;;;;;23.49;46.22;101744.06;4923220;28;45482;-71
2021/07/22 05:58:06;;;;;;;;;23.00;20.75;;;;;23.54;46.15;101750.00;4923437;28;45384;-73
2021/07/22 06:00:32;;;;;;;;;23.75;21.00;;;;;23.60;45.92;101751.47;4924621;28;45289;-71
2021/07/22 06:02:57;;;;;;;;;28.50;19.50;;;;;23.63;45.73;101741.44;4925183;28;45529;-71
2021/07/22 06:05:22;;;;;;;;;26.75;24.50;;;;;23.68;45.42;101744.72;4923310;28;45301;-72
2021/07/22 06:07:48;;;;;;;;;19.75;19.50;;;;;23.71;45.58;101739.16;4925494;28;45362;-72
2021/07/22 06:10:14;;;;;;;;;24.75;22.25;;;;;23.77;45.82;101746.00;4929814;28;47583;-72
2021/07/22 06:12:40;;;;;;;;;23.50;20.25;;;;;23.80;45.20;101742.28;4932726;28;45478;-72
2021/07/22 06:15:06;;;;;;;;;28.00;22.00;;;;;23.84;45.10;101743.84;4936663;28;45384;-72
2021/07/22 06:17:35;;;;;;;;;25.50;25.25;;;;;23.90;45.42;101748.81;4924288;28;45930;-72
2021/07/22 06:20:02;;;;;;;;;27.75;25.75;;;;;23.94;45.18;101747.66;4922468;28;46279;-71
2021/07/22 06:22:27;;;;;;;;;25.00;23.75;;;;;23.98;44.57;101749.22;4925923;28;45760;-72
2021/07/22 06:24:53;;;;;;;;;19.25;19.25;;;;;24.03;44.62;101749.78;4926074;28;45420;-71
2021/07/22 06:27:18;;;;;;;;;24.25;23.25;;;;;24.08;45.02;101742.34;4924299;28;51637;-71
2021/07/22 06:29:43;;;;;;;;;23.25;20.25;;;;;24.13;44.25;101742.91;4934135;28;47489;-71
2021/07/22 06:32:08;;;;;;;;;25.75;22.50;;;;;24.18;44.60;101737.28;4942883;28;45339;-71
2021/07/22 06:34:34;;;;;;;;;22.50;22.50;;;;;24.23;44.33;101737.00;4908752;28;45599;-71
2021/07/22 06:36:59;;;;;;;;;24.00;17.00;;;;;24.27;43.91;101733.19;4927530;28;45260;-70
2021/07/22 06:39:25;;;;;;;;;21.50;19.25;;;;;24.32;43.94;101739.09;4936809;28;45559;-70
2021/07/22 06:41:56;;;;;;;;;22.25;21.75;;;;;24.37;44.14;101740.53;4936345;28;45470;-69
2021/07/22 06:44:21;;;;;;;;;21.50;20.25;;;;;24.42;43.70;101734.91;4920908;28;45365;-70
2021/07/22 06:46:47;;;;;;;;;25.25;21.75;;;;;24.46;43.86;101736.47;4941576;28;45506;-70
2021/07/22 06:49:12;;;;;;;;;21.75;20.75;;;;;24.50;43.95;101735.31;4938289;28;46024;-68
2021/07/22 06:51:38;;;;;;;;;22.75;19.50;;;;;24.55;43.81;101730.53;4940296;28;45433;-70
2021/07/22 06:54:03;;;;;;;;;20.50;19.75;;;;;24.59;43.95;101732.03;4937066;28;45386;-70
2021/07/22 06:56:28;;;;;;;;;21.25;21.00;;;;;24.65;43.34;101741.50;4921106;28;45422;-69
2021/07/22 06:58:54;;;;;;;;;22.75;21.25;;;;;24.70;43.58;101744.75;4925108;28;46095;-68
2021/07/22 07:01:19;;;;;;;;;25.00;21.50;;;;;24.75;43.31;101736.44;4928353;28;45268;-68
2021/07/22 07:03:44;;;;;;;;;22.75;20.25;;;;;24.79;43.39;101733.44;4925618;28;45518;-67
2021/07/22 07:06:10;;;;;;;;;25.00;22.75;;;;;24.86;43.01;101738.41;4935166;28;45552;-68
2021/07/22 07:08:35;;;;;;;;;30.00;29.50;;;;;24.90;42.32;101740.78;4920964;28;46337;-68
2021/07/22 07:11:00;;;;;;;;;25.00;25.00;;;;;24.94;42.23;101739.63;4936673;28;45379;-68
2021/07/22 07:13:26;;;;;;;;;23.25;21.75;;;;;25.00;42.52;101741.03;4925944;28;45276;-68
2021/07/22 07:15:51;;;;;;;;;28.00;23.50;;;;;25.04;41.99;101742.56;4925197;28;45537;-67
2021/07/22 07:18:16;;;;;;;;;31.25;24.25;;;;;25.07;41.92;101739.69;4930741;28;45491;-68
2021/07/22 07:20:42;;;;;;;;;26.00;25.75;;;;;25.12;42.01;101736.69;4921480;28;45309;-68
2021/07/22 07:23:07;;;;;;;;;23.00;21.25;;;;;25.16;41.94;101740.91;4921246;28;45348;-68
2021/07/22 07:25:33;;;;;;;;;24.00;20.00;;;;;25.21;41.72;101739.66;4925857;28;45669;-68
2021/07/22 07:27:59;;;;;;;;;27.00;21.75;;;;;25.27;41.46;101742.91;4927656;28;47892;-68
2021/07/22 07:30:25;;;;;;;;;29.00;24.00;;;;;25.32;40.91;101740.78;4928715;28;45377;-67
2021/07/22 07:32:54;;;;;;;;;22.75;21.50;;;;;25.39;41.29;101742.94;4930390;28;45440;-68
2021/07/22 07:35:20;;;;;;;;;24.25;21.25;;;;;25.43;41.27;101746.25;4925450;28;45635;-69
2021/07/22 07:37:45;;;;;;;;;23.25;18.00;;;;;25.49;40.90;101748.56;4927444;28;46044;-68
2021/07/22 07:40:12;;;;;;;;;21.75;17.75;;;;;25.55;40.71;101742.78;4928828;28;45395;-68
2021/07/22 07:42:37;;;;;;;;;23.50;21.25;;;;;25.62;40.50;101746.78;4929745;28;45449;-68
2021/07/22 07:45:04;;;;;;;;;24.25;18.75;;;;;25.70;40.38;101750.75;4928182;28;45534;-67
2021/07/22 07:47:29;;;;;;;;;25.25;24.50;;;;;25.75;39.70;101746.78;4928318;28;47531;-68
2021/07/22 07:49:55;;;;;;;;;24.00;23.00;;;;;25.80;39.56;101743.78;4936693;28;45315;-68
2021/07/22 07:52:20;;;;;;;;;24.75;21.50;;;;;25.85;38.95;101747.00;4909270;28;47650;-68
2021/07/22 07:54:49;;;;;;;;;20.50;17.75;;;;;25.91;39.34;101740.38;4924990;28;45473;-68
2021/07/22 07:57:14;;;;;;;;;22.75;21.75;;;;;25.97;38.69;101745.34;4924705;28;47079;-69
2021/07/22 07:59:40;;;;;;;;;21.75;20.00;;;;;26.01;38.12;101738.81;4920546;28;45274;-68
2021/07/22 08:02:05;;;;;;;;;17.75;16.25;;;;;26.05;38.27;101730.44;4921642;28;45347;-68
2021/07/22 08:04:30;;;;;;;;;15.25;13.50;;;;;26.12;37.52;101730.84;4924287;28;45216;-68
2021/07/22 08:06:56;;;;;;;;;22.75;20.50;;;;;26.15;37.63;101736.00;4923630;28;45642;-68
2021/07/22 08:09:21;;;;;;;;;19.25;17.00;;;;;26.20;37.07;101736.53;4923512;28;45498;-68
2021/07/22 08:11:46;;;;;;;;;13.75;12.25;;;;;26.28;36.84;101736.00;4920552;28;45482;-68
2021/07/22 08:14:13;;;;;;;;;23.50;22.75;;;;;26.36;36.88;101730.06;4920641;28;45485;-68
2021/07/22 08:16:41;;;;;;;;;19.25;18.50;;;;;26.45;36.93;101732.94;4924455;28;46947;-68
2021/07/22 08:19:06;;;;;;;;;19.00;16.00;;;;;26.55;37.21;101737.69;4923267;28;45333;-67
2021/07/22 08:21:31;;;;;;;;;20.25;18.25;;;;;26.68;36.25;101733.16;4923685;28;45362;-68
2021/07/22 08:23:57;;;;;;;;;14.50;14.00;;;;;26.78;36.32;101730.66;4921694;28;45493;-68
2021/07/22 08:26:22;;;;;;;;;17.75;17.75;;;;;26.86;35.72;101733.63;4919317;28;45471;-69
2021/07/22 08:28:47;;;;;;;;;15.75;13.50;;;;;26.91;35.73;101736.88;4934763;28;45467;-67
2021/07/22 08:31:13;;;;;;;;;20.75;18.25;;;;;26.97;35.61;101732.88;4926821;28;49568;-69
2021/07/22 08:33:38;;;;;;;;;22.25;18.00;;;;;27.07;35.21;101734.75;4924157;28;45430;-68
2021/07/22 08:36:03;;;;;;;;;18.25;15.50;;;;;27.18;35.21;101736.66;4921407;28;55834;-69
2021/07/22 08:38:29;;;;;;;;;22.25;19.50;;;;;27.29;35.26;101739.44;4919094;28;45553;-69
2021/07/22 08:40:55;;;;;;;;;20.75;18.00;;;;;27.42;35.13;101735.81;4909949;28;45507;-68
2021/07/22 08:43:23;;;;;;;;;21.00;18.25;;;;;27.51;35.10;101735.97;4935355;28;45312;-68
2021/07/22 08:45:48;;;;;;;;;15.00;14.00;;;;;27.61;34.66;101735.25;4934467;28;46306;-69
2021/07/22 08:48:14;;;;;;;;;19.25;17.50;;;;;27.70;34.97;101737.25;4934660;28;45455;-69
2021/07/22 08:50:40;;;;;;;;;19.50;18.25;;;;;27.82;34.68;101738.13;4928311;28;45486;-68
2021/07/22 08:53:06;;;;;;;;;20.25;18.00;;;;;27.88;34.41;101733.16;4920834;28;45404;-68
2021/07/22 08:55:31;;;;;;;;;19.75;16.50;;;;;28.01;34.47;101732.19;4924032;28;46113;-68
2021/07/22 08:57:57;;;;;;;;;28.25;23.00;;;;;28.14;34.08;101735.63;4923757;28;45346;-69
2021/07/22 09:00:23;;;;;;;;;21.50;20.50;;;;;28.25;34.05;101729.41;4924349;28;45353;-68
2021/07/22 09:02:50;;;;;;;;;21.50;19.00;;;;;28.36;33.45;101730.28;4921403;28;45490;-69
2021/07/22 09:05:16;;;;;;;;;21.50;19.00;;;;;28.49;33.77;101727.47;4934467;28;46347;-69
2021/07/22 09:07:41;;;;;;;;;20.00;17.75;;;;;28.60;33.45;101729.28;4934714;28;45375;-69
2021/07/22 09:10:06;;;;;;;;;20.75;17.00;;;;;28.71;33.18;101731.97;4927616;28;45248;-69
2021/07/22 09:12:38;;;;;;;;;18.25;18.25;;;;;28.79;32.56;101732.22;4923966;28;45736;-69
2021/07/22 09:15:05;;;;;;;;;20.25;20.25;;;;;28.89;32.46;101731.44;4922664;28;45521;-69
2021/07/22 09:17:31;;;;;;;;;17.50;17.00;;;;;28.99;33.15;101735.09;4918979;28;45455;-68
2021/07/22 09:19:56;;;;;;;;;17.50;14.75;;;;;29.12;32.77;101730.41;4921423;28;45392;-69
2021/07/22 09:22:40;;;;;;;;;18.00;18.00;;;;;29.32;32.74;101739.56;4923802;28;45469;-69
2021/07/22 09:25:06;;;;;;;;;17.50;14.00;;;;;29.47;32.78;101731.16;4923242;28;45474;-69
2021/07/22 09:27:41;;;;;;;;;13.75;13.50;;;;;29.62;32.15;101732.53;4922840;28;45367;-69
2021/07/22 09:30:09;;;;;;;;;17.00;15.00;;;;;29.76;31.53;101729.53;4922895;28;45312;-69
2021/07/22 09:32:37;;;;;;;;;19.00;16.00;;;;;29.92;31.84;101731.78;4918286;28;45406;-68
2021/07/22 09:35:05;;;;;;;;;14.50;14.50;;;;;30.03;31.37;101728.13;4919749;28;46117;-70
2021/07/22 09:37:31;;;;;;;;;15.75;15.00;;;;;30.20;30.91;101726.66;4923963;28;45426;-70
2021/07/22 09:39:56;;;;;;;;;17.75;15.25;;;;;30.32;31.59;101731.03;4923673;28;45364;-68
2021/07/22 09:42:22;;;;;;;;;19.00;17.00;;;;;30.45;31.09;101728.06;4925191;28;45388;-68
2021/07/22 09:44:47;;;;;;;;;13.00;12.00;;;;;30.54;30.67;101729.09;4935104;28;45527;-69
2021/07/22 09:47:12;;;;;;;;;15.50;13.50;;;;;30.64;30.64;101729.97;4934919;28;45579;-69
2021/07/22 09:49:41;;;;;;;;;17.50;15.25;;;;;30.74;30.22;101735.41;4923808;28;45459;-70
2021/07/22 09:52:10;;;;;;;;;16.25;15.50;;;;;30.89;30.25;101724.09;4923427;28;45488;-70
2021/07/22 09:54:37;;;;;;;;;18.25;15.25;;;;;31.05;30.07;101728.09;4923062;28;47319;-70
2021/07/22 09:57:12;;;;;;;;;16.25;16.25;;;;;31.22;29.69;101730.09;4922182;28;45512;-69
2021/07/22 09:59:37;;;;;;;;;15.25;15.25;;;;;31.42;29.05;101735.56;4919242;28;45441;-69
2021/07/22 10:02:05;;;;;;;;;15.75;14.75;;;;;31.57;29.07;101722.44;4933434;28;45396;-70
2021/07/22 10:04:32;;;;;;;;;16.75;14.00;;;;;31.74;29.32;101725.22;4918914;28;46450;-71
2021/07/22 10:07:01;;;;;;;;;17.25;16.00;;;;;31.87;28.86;101714.09;4928280;28;45565;-71
2021/07/22 10:09:31;;;;;;;;;13.50;13.50;;;;;32.00;28.89;101718.38;4923618;28;45473;-71
2021/07/22 10:11:57;;;;;;;;;15.75;14.25;;;;;32.17;28.83;101712.16;4920933;28;45304;-71
2021/07/22 10:14:24;;;;;;;;;17.50;13.50;;;;;32.33;27.74;101722.38;4918700;28;45890;-71
2021/07/22 10:16:51;;;;;;;;;15.75;13.25;;;;;32.50;27.73;101715.34;4921669;28;45393;-71
2021/07/22 10:19:18;;;;;;;;;19.75;15.00;;;;;32.66;27.21;101710.09;4922933;28;45398;-71
2021/07/22 10:21:44;;;;;;;;;14.75;13.25;;;;;32.84;27.43;101709.28;4922717;28;45496;-71
2021/07/22 10:24:10;;;;;;;;;13.50;13.00;;;;;32.95;26.75;101707.19;4921875;28;46431;-70
2021/07/22 10:26:40;;;;;;;;;13.50;13.50;;;;;33.03;27.12;101702.84;4933583;28;45399;-73
2021/07/22 10:29:05;;;;;;;;;14.75;13.50;;;;;33.13;26.81;101696.38;4919890;28;45640;-69
2021/07/22 10:31:33;;;;;;;;;18.50;16.50;;;;;33.24;26.10;101695.28;4932209;28;45561;-72
2021/07/22 10:34:00;;;;;;;;;14.50;13.75;;;;;33.35;26.37;101694.19;4926792;28;46444;-72
2021/07/22 10:36:26;;;;;;;;;15.00;15.00;;;;;33.48;26.83;101686.47;4921946;28;45647;-71
2021/07/22 10:38:52;;;;;;;;;14.50;14.50;;;;;33.59;26.11;101690.84;4918560;28;45358;-71
2021/07/22 10:41:38;;;;;;;;;11.50;11.25;;;;;33.67;25.74;101681.88;4917143;28;45779;-71
2021/07/22 10:44:15;;;;;;;;;18.25;15.75;;;;;33.74;25.79;101688.38;4918452;28;47235;-71
2021/07/22 10:46:54;;;;;;;;;27.00;26.25;;;;;33.80;24.85;101683.16;4920695;28;45438;-70
2021/07/22 10:49:20;;;;;;;;;15.00;12.75;;;;;33.78;25.27;101684.34;4925140;28;45455;-70
2021/07/22 10:51:46;;;;;;;;;10.25;7.50;;;;;33.86;25.38;101678.09;4925510;28;45371;-71
2021/07/22 10:54:39;;;;;;;;;13.50;13.50;;;;;33.99;25.22;101670.34;4924687;28;47408;-72
2021/07/22 10:57:05;;;;;;;;;15.00;14.75;;;;;34.11;25.05;101670.94;4923943;28;45583;-71
2021/07/22 10:59:53;;;;;;;;;11.50;10.50;;;;;34.31;24.70;101677.84;4935887;28;45583;-70
2021/07/22 11:02:38;;;;;;;;;13.25;11.50;;;;;34.54;24.69;101679.94;4930606;28;45418;-72
2021/07/22 11:05:04;;;;;;;;;15.00;12.50;;;;;34.68;24.25;101674.75;4933304;28;46990;-71